Terminal Aerodrome Forecast
Issued by NWS

Home | Current Version | Previous Version | Text Only | Print | Product List | Glossary On
Versions: 1 2 3 4 5 6 7 8 9 10 11 12 13 14 15 16 17 18 19 20 21 22 23 24
000
FTUS43 KMQT 292320
TAFSAW
TAF
KSAW 292320Z 3000/3024 35015G26KT 3SM -SHSN BLSN OVC015
      TEMPO 3000/3004 1SM -SHSN BLSN
     FM300400 34017G23KT 5SM -SHSN BLSN OVC025
     FM300700 33014G19KT P6SM OVC030
     FM301000 33009KT P6SM BKN030
     FM301300 30007KT P6SM SCT080
     FM302100 24005KT P6SM BKN050=

USA.gov is the U.S. government's official web portal to all federal, state and local government web resources and services.